• Join FlightAware (Why Join?)
  • Login
  • US Flag 
01:50AM EST


 

Airport Tracker/Info


-or-


 

Live Flight TrackerFlight Track Log ✈ KAP29 ✈ 08-Jun-2013 ✈ KBOS - KSLK

Flight Track Log - Related Links

Times and Time Zones

All times are in EDT time to prevent confusion due to time zone crossing. See the KAP29 flight status page for this flight to view local times or setup timezone preferences in your user account.

Time Position Orientation Groundspeed Altitude Reporting Facility
EDT Latitude Longitude Course Direction KTS MPH feet Rate Location/Type
05:55PM 42.3667 -71.0167 216° Southwest 98 113 400  Level KA90
05:56PM 42.3500 -71.0333 216° Southwest 106 122 1,100 840 Climbing KA90
05:57PM 42.3500 -71.0667 270° West 109 125 1,800 600 Climbing KA90
05:58PM 42.3500 -71.1167 270° West 106 122 2,400 600 Climbing KA90
05:59PM 42.3833 -71.1333 340° North 117 135 3,100 600 Climbing KA90
06:00PM 42.4167 -71.1500 340° North 121 139 3,700 540 Climbing KA90
06:01PM 42.4500 -71.1500 360° North 120 138 4,200 660 Climbing KA90
06:02PM 42.4833 -71.1667 340° North 120 138 4,900 600 Climbing KA90
06:03PM 42.5000 -71.1833 324° Northwest 118 136 5,400 540 Climbing KA90
06:04PM 42.5333 -71.2000 340° North 123 142 6,000 540 Climbing KA90
06:05PM 42.5667 -71.2167 340° North 124 143 6,500 420 Climbing KA90
06:06PM 42.6000 -71.2333 340° North 123 142 7,000 480 Climbing KA90
06:07PM 42.6333 -71.2500 340° North 123 142 7,600 480 Climbing KA90
06:08PM 42.6667 -71.2667 340° North 125 144 8,100 300 Climbing KA90
06:09PM 42.7000 -71.2833 340° North 141 162 8,200  Climbing KA90
06:10PM 42.7500 -71.3000 346° North 159 183 8,200 -60 Level KA90
06:11PM 42.8000 -71.3333 334° Northwest 164 189 8,100 -60 Descending KA90
06:12PM 42.8333 -71.3500 340° North 167 192 8,100  Level KA90
06:13PM 42.8833 -71.4000 324° Northwest 163 188 8,100  Level KA90
06:14PM 42.9000 -71.4333 304° West 157 181 8,100  Level KA90
06:15PM 42.9333 -71.4667 324° Northwest 156 180 8,100  Level KA90
06:16PM 42.9667 -71.5167 312° West 159 183 8,100  Level KA90
06:17PM 42.9833 -71.5667 295° West 157 181 8,100  Level KA90
06:18PM 43.0333 -71.6167 324° Northwest 158 182 8,100  Level KA90
06:19PM 43.0500 -71.6667 295° West 157 181 8,100  Level KA90
06:20PM 43.0833 -71.7000 324° Northwest 155 178 8,100  Level KA90
06:21PM 43.1111 -71.7378 315° West 171 197 8,100  Level Boston Center
06:22PM 43.1361 -71.7772 311° West 159 183 8,100  Level Boston Center
06:23PM 43.1697 -71.8253 314° West 159 183 8,100  Level Boston Center
06:24PM 43.1972 -71.8647 314° West 159 183 8,100  Level Boston Center
06:25PM 43.2286 -71.9100 314° West 159 183 8,100  Level Boston Center
06:26PM 43.2558 -71.9497 313° West 159 183 8,100  Level Boston Center
06:27PM 43.2872 -71.9953 313° West 159 183 8,100  Level Boston Center
06:28PM 43.3125 -72.0350 311° West 159 183 8,100  Level Boston Center
06:29PM 43.3461 -72.0803 316° Northwest 159 183 8,100  Level Boston Center
06:30PM 43.3733 -72.1231 311° West 159 183 8,100  Level Boston Center
06:31PM 43.4047 -72.1686 313° West 159 183 8,100  Level Boston Center
06:32PM 43.4339 -72.2142 311° West 159 183 8,100  Level Boston Center
06:33PM 43.4653 -72.2569 315° West 159 183 8,100  Level Boston Center
06:34PM 43.4964 -72.2997 315° West 159 183 8,100 -60 Level Boston Center
06:35PM 43.5258 -72.3456 312° West 159 183 8,000 -60 Descending Boston Center
06:36PM 43.5550 -72.3914 311° West 159 183 8,000  Level Boston Center
06:37PM 43.5861 -72.4372 313° West 159 183 8,000  Level Boston Center
06:38PM 43.6153 -72.4803 313° West 159 183 8,000  Level Boston Center
06:39PM 43.6444 -72.5289 310° West 159 183 8,000  Level Boston Center
06:40PM 43.6778 -72.5750 315° West 159 183 8,000  Level Boston Center
06:41PM 43.7089 -72.6211 313° West 159 183 8,000  Level Boston Center
06:42PM 43.7361 -72.6528 320° Northwest 154 177 8,000  Level Boston Center
06:43PM 43.7672 -72.7075 308° West 159 183 8,000  Level Boston Center
06:44PM 43.8003 -72.7536 315° West 159 183 8,000  Level Boston Center
06:45PM 43.8275 -72.7997 309° West 159 183 8,000  Level Boston Center
06:46PM 43.8586 -72.8433 315° West 159 183 8,000  Level Boston Center
06:47PM 43.8875 -72.8867 313° West 159 183 8,000  Level Boston Center
06:48PM 43.9164 -72.9331 311° West 159 183 8,000  Level Boston Center
06:49PM 43.9475 -72.9764 315° West 159 183 8,000  Level Boston Center
06:50PM 43.9764 -73.0228 311° West 159 183 8,000  Level Boston Center
06:51PM 44.0056 -73.0664 313° West 159 183 8,000  Level Boston Center
06:52PM 44.0364 -73.1131 313° West 159 183 8,000  Level Boston Center
06:53PM 44.0653 -73.1594 311° West 159 183 8,000  Level Boston Center
06:54PM 44.0942 -73.2003 315° West 159 183 8,000  Level Boston Center
06:55PM 44.1250 -73.2469 313° West 159 183 8,000  Level Boston Center
06:56PM 44.1561 -73.2936 313° West 159 183 8,000  Level Boston Center
06:57PM 44.1869 -73.3406 312° West 159 183 8,000  Level Boston Center
06:58PM 44.2178 -73.3903 311° West 159 183 8,000  Level Boston Center
06:59PM 44.2508 -73.4428 311° West 171 197 8,000  Level Boston Center
07:00PM 44.2817 -73.4839 316° Northwest 171 197 8,000  Level Boston Center
07:01PM 44.3103 -73.5308 310° West 171 197 8,000  Level Boston Center
07:02PM 44.3453 -73.5839 313° West 171 197 8,000 -180 Level Boston Center
07:03PM 44.3739 -73.6308 310° West 165 190 7,700 -300 Descending Boston Center
07:04PM 44.4047 -73.6781 312° West 165 190 7,500 -120 Descending Boston Center
07:05PM 44.4356 -73.7222 314° West 160 184 7,500  Level Boston Center
07:06PM 44.4600 -73.7636 310° West 160 184 7,500  Level Boston Center
07:07PM 44.4906 -73.8106 312° West 160 184 7,500  Level Boston Center
07:08PM 44.5214 -73.8550 314° West 160 184 7,500 -120 Level Boston Center
07:09PM 44.5436 -73.9022 303° West 160 184 7,300 -300 Descending Boston Center
07:10PM 44.5575 -73.9581 289° West 155 178 7,000 -600 Descending Boston Center
07:11PM 44.5653 -74.0164 281° West 149 171 6,100 -840 Descending Boston Center
07:12PM 44.5394 -74.0594 230° Southwest 135 155 5,400 -720 Descending Boston Center
07:13PM 44.5058 -74.0875 211° Southwest 146 168 4,700 -900 Descending Boston Center
07:14PM 44.4742 -74.1217 218° Southwest 152 175 3,600 -900 Descending Boston Center
07:15PM 44.4467 -74.1469 213° Southwest 152 175 2,900 -660 Descending Boston Center
07:16PM 44.4169 -74.1753 214° Southwest 139 160 2,300 -600 Descending Boston Center
07:18PM 44.3833 -74.2000 216° Southwest  Level FlightAware Approximate
07:25PM 44.3853 -74.2062 216° Southwest  Level Estimated
07:26PM 44.3833 -74.2000 216° Southwest  Level FlightAware Approximate
07:27PM 44.3853 -74.2062 216° Southwest  Level Estimated
07:28PM 44.3833 -74.2000 216° Southwest  Level FlightAware Approximate
07:29PM 44.3853 -74.2062 216° Southwest  Level Estimated
07:30PM 44.3833 -74.2000 216° Southwest  Level FlightAware Approximate